Time;durP1;ratioP1;P1;durP2;ratioP2;P2;SDS_P1;SDS_P2;PMS_P1;PMS_P2;Temp;Humidity;BMP_temperature;BMP_pressure;BME280_temperature;BME280_humidity;BME280_pressure;Samples;Min_cycle;Max_cycle;Signal;HPM_P1;HPM_P2
2023/10/17 00:02:27;;;;;;;0.10;0.10;;;;;;;4.72;77.35;98183.66;5087799;28;20047;-70
2023/10/17 00:04:53;;;;;;;;;;;;;;;4.73;77.05;98182.56;5070196;28;20036;-67
2023/10/17 00:07:20;;;;;;;0.10;0.10;;;;;;;4.70;77.63;98170.38;5104267;28;19928;-69
2023/10/17 00:09:48;;;;;;;0.10;0.10;;;;;;;4.69;77.76;98182.31;5087006;28;20050;-66
2023/10/17 00:17:21;;;;;;;0.00;0.00;;;;;;;4.67;77.65;98170.94;5108961;28;20047;-66
2023/10/17 00:19:50;;;;;;;0.10;0.10;;;;;;;4.62;77.47;98177.19;5104727;28;20418;-66
2023/10/17 00:22:23;;;;;;;0.10;0.10;;;;;;;4.56;77.45;98186.41;5102653;28;20182;-70
2023/10/17 00:25:10;;;;;;;0.10;0.10;;;;;;;4.52;78.04;98177.19;5103697;28;20550;-68
2023/10/17 00:27:37;;;;;;;0.10;0.10;;;;;;;4.50;78.33;98196.44;5087180;28;20096;-68
2023/10/17 00:30:04;;;;;;;0.10;0.10;;;;;;;4.50;77.93;98190.19;5085764;28;20067;-70
2023/10/17 00:32:40;;;;;;;0.10;0.10;;;;;;;4.48;78.33;98190.50;5068754;28;20055;-71
2023/10/17 00:35:19;;;;;;;0.10;0.10;;;;;;;4.48;78.86;98184.25;5105579;28;20172;-66
2023/10/17 00:37:56;;;;;;;0.10;0.10;;;;;;;4.46;78.62;98178.31;5105224;28;20075;-66
2023/10/17 00:40:34;;;;;;;;;;;;;;;4.42;78.94;98183.44;5103804;28;20043;-66
2023/10/17 00:43:04;;;;;;;0.08;0.08;;;;;;;4.39;78.74;98187.53;5082360;28;20306;-66
2023/10/17 00:45:30;;;;;;;0.10;0.10;;;;;;;4.38;79.27;98180.50;5050940;28;20086;-66
2023/10/17 00:47:59;;;;;;;0.10;0.10;;;;;;;4.37;78.92;98191.59;5085803;28;20039;-66
2023/10/17 00:50:26;;;;;;;0.10;0.10;;;;;;;4.33;78.44;98182.41;5105255;28;20077;-66
2023/10/17 00:52:52;;;;;;;0.10;0.10;;;;;;;4.28;78.03;98174.28;5088832;28;20141;-70
2023/10/17 00:55:18;;;;;;;0.10;0.10;;;;;;;4.26;78.42;98179.97;5085117;28;20052;-70
2023/10/17 00:57:48;;;;;;;0.10;0.10;;;;;;;4.21;77.88;98178.06;5052199;28;20050;-70
2023/10/17 01:00:35;;;;;;;0.10;0.10;;;;;;;4.20;78.27;98181.03;5086465;28;20071;-71
2023/10/17 01:03:10;;;;;;;0.10;0.10;;;;;;;4.16;78.24;98186.22;5084702;28;20181;-70
2023/10/17 01:05:57;;;;;;;0.00;0.00;;;;;;;4.15;77.14;98186.47;5067456;28;20069;-71
2023/10/17 01:08:36;;;;;;;0.10;0.10;;;;;;;4.13;77.79;98183.22;5066591;28;20075;-70
2023/10/17 01:11:08;;;;;;;0.10;0.10;;;;;;;4.09;77.44;98191.91;5085877;28;20124;-66
2023/10/17 01:13:37;;;;;;;0.10;0.10;;;;;;;4.07;78.20;98190.53;5066984;28;20058;-66
2023/10/17 01:16:07;;;;;;;0.10;0.10;;;;;;;4.04;78.04;98185.66;5104782;28;20152;-66
2023/10/17 01:18:35;;;;;;;0.10;0.10;;;;;;;3.95;77.04;98175.38;5067421;28;20039;-66
2023/10/17 01:21:02;;;;;;;0.10;0.10;;;;;;;4.05;77.11;98198.91;5100465;28;20044;-66
2023/10/17 01:23:29;;;;;;;0.10;0.10;;;;;;;4.07;77.80;98201.34;5083509;28;20082;-66
2023/10/17 01:25:57;;;;;;;0.10;0.10;;;;;;;4.02;78.59;98199.44;5103198;28;20054;-66
2023/10/17 01:28:23;;;;;;;;;;;;;;;4.00;77.51;98192.72;5067309;28;20051;-66
2023/10/17 01:30:55;;;;;;;0.10;0.10;;;;;;;3.94;78.36;98200.00;5082017;28;19927;-66
2023/10/17 01:33:27;;;;;;;0.10;0.10;;;;;;;3.88;78.60;98199.19;5085476;28;20404;-66
2023/10/17 01:35:56;;;;;;;0.00;0.00;;;;;;;3.83;79.04;98200.00;5103325;28;20134;-70
2023/10/17 01:38:25;;;;;;;0.00;0.00;;;;;;;3.81;79.05;98206.75;5085250;28;20043;-70
2023/10/17 01:40:53;;;;;;;0.10;0.10;;;;;;;3.77;80.23;98205.66;5097577;28;20048;-70
2023/10/17 01:43:21;;;;;;;0.10;0.10;;;;;;;3.76;78.95;98201.34;5084172;28;20105;-70
2023/10/17 01:45:48;;;;;;;0.10;0.10;;;;;;;3.66;79.68;98200.25;5084501;28;20040;-71
2023/10/17 01:48:14;;;;;;;0.10;0.10;;;;;;;3.66;79.46;98202.94;5084845;28;20058;-70
2023/10/17 01:50:44;;;;;;;0.10;0.10;;;;;;;3.61;80.29;98216.47;5103260;28;20055;-70
2023/10/17 01:53:12;;;;;;;0.10;0.10;;;;;;;3.54;80.07;98211.31;5084460;28;20044;-70
2023/10/17 01:55:39;;;;;;;0.10;0.10;;;;;;;3.50;80.91;98209.41;5085155;28;20040;-70
2023/10/17 01:58:07;;;;;;;0.00;0.00;;;;;;;3.50;81.30;98209.41;5102043;28;20048;-70
2023/10/17 02:00:38;;;;;;;0.00;0.00;;;;;;;3.49;81.55;98205.91;5067653;28;20131;-69
2023/10/17 02:03:08;;;;;;;0.00;0.00;;;;;;;3.46;81.88;98213.72;5104407;28;20051;-69
2023/10/17 02:05:34;;;;;;;0.10;0.10;;;;;;;3.41;82.07;98211.81;5084360;28;20468;-70
2023/10/17 02:08:01;;;;;;;0.10;0.10;;;;;;;3.38;83.12;98207.78;5085013;28;20046;-70
2023/10/17 02:10:29;;;;;;;0.10;0.10;;;;;;;3.40;82.86;98205.63;5087462;28;20043;-70
2023/10/17 02:12:56;;;;;;;0.10;0.10;;;;;;;3.42;82.00;98213.44;5088576;28;20599;-69
2023/10/17 02:15:23;;;;;;;0.10;0.10;;;;;;;3.42;81.63;98212.63;5101574;28;20418;-66
2023/10/17 02:17:52;;;;;;;0.10;0.10;;;;;;;3.40;81.20;98216.41;5102188;28;20045;-66
2023/10/17 02:22:55;;;;;;;0.10;0.10;;;;;;;3.43;81.41;98217.75;5082673;28;20082;-70
2023/10/17 02:25:27;;;;;;;0.10;0.10;;;;;;;3.41;81.30;98209.13;5078121;28;20054;-70
2023/10/17 02:27:54;;;;;;;0.10;0.10;;;;;;;3.38;81.08;98209.66;5084481;28;20311;-70
2023/10/17 02:30:20;;;;;;;0.10;0.10;;;;;;;3.36;81.29;98203.72;5098373;28;20062;-70
2023/10/17 02:32:53;;;;;;;0.10;0.10;;;;;;;3.31;81.22;98201.00;5079771;28;20044;-69
2023/10/17 02:35:28;;;;;;;0.10;0.10;;;;;;;3.30;82.12;98210.97;5101973;28;20050;-69
2023/10/17 02:37:59;;;;;;;0.10;0.10;;;;;;;3.26;82.27;98199.09;5102419;28;20055;-66
2023/10/17 02:40:25;;;;;;;0.10;0.10;;;;;;;3.25;82.71;98200.97;5101523;28;20298;-66
2023/10/17 02:42:51;;;;;;;0.03;0.03;;;;;;;3.24;83.19;98209.34;5103385;28;20044;-66
2023/10/17 02:45:27;;;;;;;0.10;0.10;;;;;;;3.23;82.76;98205.03;5100607;28;20143;-66
2023/10/17 02:47:54;;;;;;;0.10;0.10;;;;;;;3.16;82.85;98207.97;5065735;28;20514;-70
2023/10/17 02:52:58;;;;;;;0.10;0.10;;;;;;;3.08;82.02;98198.50;5051437;28;20498;-70
2023/10/17 02:55:24;;;;;;;0.10;0.10;;;;;;;3.01;82.79;98214.13;5081053;28;20051;-69
2023/10/17 02:57:52;;;;;;;0.10;0.10;;;;;;;2.97;82.21;98205.75;5065112;28;20051;-66
2023/10/17 03:00:33;;;;;;;0.10;0.10;;;;;;;2.86;82.93;98217.56;5050157;28;20418;-66
2023/10/17 03:02:59;;;;;;;0.00;0.00;;;;;;;2.79;83.92;98225.91;5083155;28;20046;-66
2023/10/17 03:05:27;;;;;;;0.00;0.00;;;;;;;2.81;83.61;98218.34;5083617;28;20048;-70
2023/10/17 03:07:54;;;;;;;0.10;0.10;;;;;;;2.59;84.62;98196.91;5098956;28;20074;-70
2023/10/17 03:10:36;;;;;;;0.08;0.08;;;;;;;2.75;85.67;98235.63;5082976;28;20060;-70
2023/10/17 03:13:06;;;;;;;0.10;0.10;;;;;;;2.69;85.20;98212.34;5066653;28;20044;-70
2023/10/17 03:15:38;;;;;;;0.10;0.10;;;;;;;2.62;85.51;98209.88;5101046;28;20047;-70
2023/10/17 03:18:14;;;;;;;0.00;0.00;;;;;;;2.59;85.71;98221.22;5067129;28;20043;-70
2023/10/17 03:20:54;;;;;;;0.10;0.10;;;;;;;2.53;86.15;98227.66;5051519;28;20093;-70
2023/10/17 03:23:28;;;;;;;0.00;0.00;;;;;;;2.46;87.07;98214.38;5067280;28;20051;-70
2023/10/17 03:26:00;;;;;;;0.10;0.10;;;;;;;2.43;87.26;98209.53;5101320;28;20065;-70
2023/10/17 03:28:29;;;;;;;0.00;0.00;;;;;;;2.38;87.83;98225.66;5049380;28;20066;-70
2023/10/17 03:30:55;;;;;;;0.10;0.10;;;;;;;2.35;88.32;98221.63;5082842;28;20322;-70
2023/10/17 03:33:29;;;;;;;0.00;0.00;;;;;;;2.32;88.17;98218.59;5082075;28;20147;-66
2023/10/17 03:38:33;;;;;;;0.10;0.10;;;;;;;2.18;88.47;98210.97;5067073;28;20109;-71
2023/10/17 03:41:15;;;;;;;0.10;0.10;;;;;;;2.23;88.71;98224.47;5085050;28;20099;-70
2023/10/17 03:43:49;;;;;;;0.00;0.00;;;;;;;2.24;88.77;98230.69;5099910;28;20044;-70
2023/10/17 03:46:16;;;;;;;0.10;0.10;;;;;;;2.20;88.67;98229.59;5085099;28;20450;-70
2023/10/17 03:48:49;;;;;;;0.10;0.10;;;;;;;2.22;88.63;98228.25;5083584;28;20142;-70
2023/10/17 03:51:25;;;;;;;0.10;0.10;;;;;;;1.90;88.84;98196.72;5084638;28;20421;-70
2023/10/17 03:54:06;;;;;;;0.10;0.10;;;;;;;2.09;89.51;98237.59;5077513;28;20142;-70
2023/10/17 03:56:44;;;;;;;0.10;0.10;;;;;;;2.03;89.68;98230.53;5082459;28;20426;-70
2023/10/17 03:59:24;;;;;;;0.00;0.00;;;;;;;1.86;90.32;98227.97;5085566;28;20055;-66
2023/10/17 04:01:52;;;;;;;0.00;0.00;;;;;;;1.83;90.98;98231.97;5070680;28;20083;-69
2023/10/17 04:04:30;;;;;;;;;;;;;;;1.87;90.73;98244.94;5053878;28;20044;-70
2023/10/17 04:06:58;;;;;;;0.00;0.00;;;;;;;1.81;90.25;98244.88;5083610;28;19970;-66
2023/10/17 04:11:53;;;;;;;0.00;0.00;;;;;;;1.74;90.91;98246.16;5081144;28;20041;-66
2023/10/17 04:14:21;;;;;;;0.00;0.00;;;;;;;1.71;91.31;98260.94;5083289;28;20439;-65
2023/10/17 04:16:48;;;;;;;0.10;0.10;;;;;;;1.69;91.33;98263.09;5072101;28;20045;-65
2023/10/17 04:19:18;;;;;;;0.00;0.00;;;;;;;1.64;91.78;98271.97;5068999;28;20419;-65
2023/10/17 04:24:34;;;;;;;0.10;0.10;;;;;;;1.55;92.21;98260.78;5080811;28;20040;-70
2023/10/17 04:27:19;;;;;;;0.10;0.10;;;;;;;1.56;92.26;98272.41;5082734;28;20052;-70
2023/10/17 04:29:57;;;;;;;0.10;0.10;;;;;;;1.52;92.44;98273.97;5085625;28;20043;-70
2023/10/17 04:32:27;;;;;;;0.00;0.00;;;;;;;1.51;92.62;98275.84;5091097;28;20051;-66
2023/10/17 04:34:55;;;;;;;0.10;0.10;;;;;;;1.49;93.00;98271.78;4747195;28;10000519;-65
2023/10/17 04:37:32;;;;;;;0.10;0.10;;;;;;;1.45;92.77;98282.25;5086497;28;20048;-70
2023/10/17 04:45:28;;;;;;;0.00;0.00;;;;;;;1.30;93.49;98285.56;5106162;28;20070;-70
2023/10/17 04:48:10;;;;;;;0.00;0.00;;;;;;;1.25;93.73;98294.41;5101243;28;20078;-70
2023/10/17 04:50:45;;;;;;;0.03;0.03;;;;;;;1.24;94.17;98300.84;5083520;28;20567;-70
2023/10/17 04:53:28;;;;;;;0.03;0.03;;;;;;;1.26;94.32;98298.75;5077369;28;20142;-70
2023/10/17 04:56:16;;;;;;;0.10;0.10;;;;;;;1.31;94.02;98303.34;5087926;28;20100;-71
2023/10/17 04:58:53;;;;;;;0.00;0.00;;;;;;;1.31;93.82;98307.94;5097891;28;20388;-70
2023/10/17 05:04:19;;;;;;;0.00;0.00;;;;;;;1.26;92.72;98304.13;5117307;27;19930;-65
2023/10/17 05:07:14;;;;;;;0.10;0.10;;;;;;;1.20;93.05;98288.16;5076615;28;20138;-66
2023/10/17 06:18:17;;;;;;;0.10;0.10;;;;;;;2.60;83.61;98355.06;5105747;28;20043;-68
2023/10/17 06:21:06;;;;;;;0.10;0.10;;;;;;;2.60;83.60;98370.47;5083895;28;20469;-68
2023/10/17 06:34:12;;;;;;;0.10;0.10;;;;;;;2.74;83.76;98371.66;5100575;28;20051;-69
2023/10/17 06:36:39;;;;;;;0.10;0.10;;;;;;;2.83;82.68;98366.59;5103505;28;20051;-68
2023/10/17 06:39:14;;;;;;;0.10;0.10;;;;;;;2.66;81.98;98370.25;5083649;28;20511;-67
2023/10/17 06:41:44;;;;;;;0.10;0.10;;;;;;;2.67;82.61;98376.44;5103262;28;20138;-67
2023/10/17 06:44:21;;;;;;;0.10;0.10;;;;;;;2.67;83.46;98365.66;5054872;28;20155;-69
2023/10/17 06:46:55;;;;;;;0.10;0.10;;;;;;;2.49;82.37;98342.56;5087394;28;20142;-67
2023/10/17 06:52:19;;;;;;;0.10;0.10;;;;;;;2.76;82.71;98374.06;5069805;28;20239;-69
2023/10/17 06:54:58;;;;;;;0.10;0.10;;;;;;;2.83;81.17;98388.19;5083569;28;20082;-69
2023/10/17 06:57:33;;;;;;;0.10;0.10;;;;;;;2.75;81.17;98380.56;5082305;28;20047;-67
2023/10/17 07:03:04;;;;;;;0.10;0.10;;;;;;;2.83;81.36;98367.38;5055439;28;20040;-70
2023/10/17 07:05:35;;;;;;;0.10;0.10;;;;;;;2.91;81.80;98365.28;5053694;28;20036;-70
2023/10/17 07:08:02;;;;;;;0.10;0.10;;;;;;;3.08;81.61;98381.31;5033647;28;20055;-70
2023/10/17 07:13:31;;;;;;;0.10;0.10;;;;;;;3.07;80.74;98379.69;5065395;28;20412;-70
2023/10/17 07:16:04;;;;;;;0.10;0.10;;;;;;;3.14;80.23;98374.06;5067456;28;20037;-67
2023/10/17 07:18:44;;;;;;;0.10;0.10;;;;;;;3.22;80.52;98382.50;5034212;28;20067;-67
2023/10/17 07:23:42;;;;;;;0.10;0.10;;;;;;;2.99;80.85;98383.69;5057219;28;20514;-68
2023/10/17 07:26:17;;;;;;;0.10;0.10;;;;;;;3.02;81.60;98382.38;5031963;28;20411;-67
2023/10/17 07:28:50;;;;;;;0.10;0.10;;;;;;;3.11;80.19;98378.94;5027473;28;20044;-67
2023/10/17 07:31:18;;;;;;;0.10;0.10;;;;;;;3.03;80.87;98382.09;5045490;28;20067;-69
2023/10/17 07:36:34;;;;;;;0.10;0.10;;;;;;;2.97;80.59;98383.16;5065155;28;20053;-70
2023/10/17 07:39:05;;;;;;;0.10;0.10;;;;;;;2.76;82.07;98388.41;5084728;28;20044;-69
2023/10/17 07:41:37;;;;;;;0.00;0.00;;;;;;;2.62;81.82;98382.59;5084289;28;20056;-67
2023/10/17 07:44:20;;;;;;;0.10;0.10;;;;;;;2.61;83.68;98397.16;5065060;28;20263;-67
2023/10/17 07:46:50;;;;;;;0.10;0.10;;;;;;;2.68;83.56;98418.56;5073386;28;20045;-67
2023/10/17 07:49:26;;;;;;;0.10;0.10;;;;;;;2.68;82.84;98399.66;5066311;28;20139;-67
2023/10/17 07:51:58;;;;;;;0.10;0.10;;;;;;;2.68;83.70;98410.47;5084832;28;20147;-67
2023/10/17 07:54:30;;;;;;;0.10;0.10;;;;;;;2.64;83.13;98423.66;5084310;28;20044;-67
2023/10/17 07:56:58;;;;;;;0.10;0.10;;;;;;;2.54;83.94;98418.97;5084103;28;20046;-67
2023/10/17 07:59:34;;;;;;;0.10;0.10;;;;;;;2.58;84.38;98418.47;5078828;28;20549;-67
2023/10/17 08:02:13;;;;;;;0.10;0.10;;;;;;;2.60;82.87;98419.03;5086799;28;20056;-67
2023/10/17 08:04:43;;;;;;;0.00;0.00;;;;;;;2.61;83.10;98426.88;5050135;28;20630;-67
2023/10/17 08:07:13;;;;;;;0.10;0.10;;;;;;;2.49;82.80;98412.72;5081002;28;20503;-67
2023/10/17 08:09:50;;;;;;;0.10;0.10;;;;;;;2.62;82.77;98420.38;5079108;28;20449;-68
2023/10/17 08:12:21;;;;;;;0.10;0.10;;;;;;;2.65;80.54;98428.00;5077234;28;20044;-68
2023/10/17 08:14:57;;;;;;;0.10;0.10;;;;;;;2.73;80.00;98426.69;5078311;28;20169;-70
2023/10/17 08:17:34;;;;;;;0.10;0.10;;;;;;;2.86;79.63;98435.44;5078652;28;20044;-68
2023/10/17 08:25:25;;;;;;;0.10;0.10;;;;;;;2.83;77.68;98456.47;5086172;28;20565;-70
2023/10/17 08:27:54;;;;;;;0.20;0.20;;;;;;;2.80;77.44;98450.78;5083904;28;20052;-68
2023/10/17 08:30:38;;;;;;;0.10;0.10;;;;;;;2.84;77.42;98446.50;5079672;28;20048;-68
2023/10/17 08:35:38;;;;;;;0.10;0.10;;;;;;;2.84;76.97;98449.22;5069030;28;20074;-70
2023/10/17 08:38:06;;;;;;;0.10;0.10;;;;;;;2.97;77.05;98450.66;5082323;28;20067;-69
2023/10/17 08:43:14;;;;;;;0.10;0.10;;;;;;;3.02;76.46;98464.19;5098645;27;20142;-68
2023/10/17 08:45:46;;;;;;;0.10;0.10;;;;;;;3.02;76.52;98445.28;5085450;28;20039;-68
2023/10/17 08:48:15;;;;;;;0.10;0.10;;;;;;;2.95;75.94;98434.69;5085850;28;20051;-70
2023/10/17 08:50:43;;;;;;;0.10;0.10;;;;;;;3.19;76.07;98450.56;5047415;28;20534;-68
2023/10/17 08:55:43;;;;;;;0.10;0.10;;;;;;;3.54;75.80;98475.38;5079763;28;19924;-70
2023/10/17 08:58:09;;;;;;;0.10;0.10;;;;;;;3.59;74.16;98459.19;5103729;28;20055;-70
2023/10/17 09:03:20;;;;;;;0.10;0.10;;;;;;;3.57;75.21;98449.69;5096806;28;20541;-70
2023/10/17 09:08:55;;;;;;;0.10;0.10;;;;;;;3.47;73.60;98445.88;5084198;28;20044;-70
2023/10/17 09:11:29;;;;;;;0.10;0.10;;;;;;;3.34;74.21;98416.63;5052480;28;20047;-70
2023/10/17 09:16:48;;;;;;;0.10;0.10;;;;;;;3.64;74.33;98445.69;5101530;28;20058;-70
2023/10/17 09:19:16;;;;;;;0.10;0.10;;;;;;;3.60;74.42;98451.91;5108482;28;20577;-70
2023/10/17 09:21:44;;;;;;;;;;;;;;;3.60;74.16;98449.19;5089833;28;20063;-68
2023/10/17 09:24:36;;;;;;;;;;;;;;;3.75;72.93;98465.50;5084870;28;19931;-68
2023/10/17 09:27:09;;;;;;;0.10;0.10;;;;;;;3.63;72.78;98449.47;5096144;28;19923;-67
2023/10/17 09:29:44;;;;;;;0.00;0.00;;;;;;;3.64;73.71;98458.41;5102279;28;20542;-67
2023/10/17 09:32:10;;;;;;;0.10;0.10;;;;;;;3.49;73.67;98446.44;5104219;28;20078;-69
2023/10/17 09:34:38;;;;;;;0.10;0.10;;;;;;;3.43;74.59;98457.47;5105807;28;20055;-68
2023/10/17 09:37:05;;;;;;;0.10;0.10;;;;;;;3.43;75.13;98438.56;5087914;28;20054;-68
2023/10/17 09:39:39;;;;;;;0.10;0.10;;;;;;;3.51;75.30;98460.50;5071515;28;20056;-70
2023/10/17 09:42:05;;;;;;;0.10;0.10;;;;;;;3.49;74.20;98473.47;5085066;28;20090;-70
2023/10/17 09:44:32;;;;;;;0.10;0.10;;;;;;;3.42;74.40;98453.13;5095892;28;20052;-70
2023/10/17 09:47:06;;;;;;;0.10;0.10;;;;;;;3.50;75.60;98476.97;5098050;28;20590;-70
2023/10/17 09:49:40;;;;;;;0.10;0.10;;;;;;;3.39;76.56;98462.56;5099660;28;20141;-70
2023/10/17 09:52:09;;;;;;;0.10;0.10;;;;;;;3.37;78.34;98462.03;5064845;28;20584;-68
2023/10/17 09:54:41;;;;;;;0.13;0.10;;;;;;;3.57;78.63;98455.94;5098621;28;20383;-68
2023/10/17 09:57:14;;;;;;;0.10;0.10;;;;;;;3.66;77.26;98450.84;5065318;28;20545;-68
2023/10/17 09:59:53;;;;;;;0.10;0.10;;;;;;;3.66;75.34;98445.44;5105682;28;20146;-68
2023/10/17 10:02:20;;;;;;;0.10;0.10;;;;;;;3.74;74.26;98452.25;5106379;28;20071;-68
2023/10/17 10:04:46;;;;;;;0.10;0.10;;;;;;;3.86;74.61;98455.56;5105994;28;20048;-70
2023/10/17 10:07:20;;;;;;;0.10;0.10;;;;;;;3.87;75.32;98449.06;5051735;28;20051;-70
2023/10/17 10:09:48;;;;;;;0.10;0.10;;;;;;;4.04;74.59;98440.72;5067681;28;20081;-68
2023/10/17 10:12:17;;;;;;;;;;;;;;;4.21;72.99;98448.66;5085078;28;20093;-68
2023/10/17 10:14:43;;;;;;;0.17;0.17;;;;;;;4.26;72.22;98448.66;5102787;28;19923;-69
2023/10/17 10:17:13;;;;;;;0.10;0.10;;;;;;;4.60;72.07;98441.97;5102496;28;20059;-70
2023/10/17 10:20:02;;;;;;;0.20;0.20;;;;;;;5.64;69.04;98452.75;5098820;28;20039;-70
2023/10/17 10:22:50;;;;;;;0.10;0.10;;;;;;;5.75;66.95;98451.63;5085179;28;20518;-70
2023/10/17 10:25:19;;;;;;;0.10;0.10;;;;;;;5.22;67.73;98435.72;5105372;28;20048;-70
2023/10/17 10:27:46;;;;;;;0.10;0.10;;;;;;;5.05;68.15;98441.44;5097615;28;20056;-70
2023/10/17 10:30:36;;;;;;;0.10;0.10;;;;;;;4.89;68.90;98456.88;5077508;28;20048;-70
2023/10/17 10:33:03;;;;;;;0.10;0.10;;;;;;;4.72;67.63;98443.63;5102910;28;20553;-68
2023/10/17 10:35:32;;;;;;;0.10;0.10;;;;;;;4.48;68.71;98430.56;5104083;28;20051;-68
2023/10/17 10:37:59;;;;;;;0.10;0.10;;;;;;;4.43;69.74;98436.78;5101564;28;20044;-68
2023/10/17 10:40:32;;;;;;;;;;;;;;;4.46;70.04;98432.72;5086737;28;20044;-70
2023/10/17 10:43:04;;;;;;;0.10;0.10;;;;;;;4.57;70.05;98455.22;5086160;28;19968;-70
2023/10/17 10:45:35;;;;;;;0.10;0.10;;;;;;;4.53;69.82;98420.56;5102023;28;20047;-69
2023/10/17 10:48:04;;;;;;;0.10;0.10;;;;;;;4.47;70.24;98416.25;5083564;28;20075;-70
2023/10/17 10:50:33;;;;;;;0.10;0.10;;;;;;;4.44;70.26;98433.00;5085049;28;20098;-67
2023/10/17 10:53:01;;;;;;;0.10;0.10;;;;;;;4.37;71.11;98427.03;5082508;28;20051;-68
2023/10/17 10:55:30;;;;;;;;;;;;;;;4.33;70.86;98425.94;5106940;28;20048;-68
2023/10/17 10:57:59;;;;;;;0.10;0.10;;;;;;;4.28;71.66;98440.28;5083488;28;19969;-68
2023/10/17 11:00:26;;;;;;;0.10;0.10;;;;;;;4.26;72.11;98437.81;5086852;28;20044;-68
2023/10/17 11:02:52;;;;;;;0.10;0.10;;;;;;;4.28;72.32;98434.03;5085465;28;20074;-68
2023/10/17 11:05:19;;;;;;;0.17;0.10;;;;;;;4.24;72.65;98420.25;5096619;28;20067;-70
2023/10/17 11:07:46;;;;;;;0.10;0.10;;;;;;;4.32;71.66;98427.03;5092893;28;20612;-70
2023/10/17 11:10:15;;;;;;;0.10;0.10;;;;;;;4.38;71.31;98434.06;5096619;28;20051;-70
2023/10/17 11:12:52;;;;;;;0.10;0.10;;;;;;;4.46;71.57;98448.97;5093978;28;20050;-70
2023/10/17 11:15:21;;;;;;;0.10;0.10;;;;;;;4.51;71.08;98444.38;5094149;28;20055;-70
2023/10/17 11:17:47;;;;;;;0.10;0.10;;;;;;;4.50;70.60;98429.22;5097538;28;20073;-68
2023/10/17 11:20:18;;;;;;;0.10;0.10;;;;;;;4.44;71.09;98430.28;5086179;28;20050;-68
2023/10/17 11:22:44;;;;;;;0.10;0.10;;;;;;;4.46;71.26;98424.63;5085239;28;20140;-68
2023/10/17 11:25:31;;;;;;;0.10;0.10;;;;;;;4.40;70.86;98415.66;5104113;28;20052;-68
2023/10/17 11:28:06;;;;;;;0.00;0.00;;;;;;;4.44;71.47;98427.56;5084214;28;20606;-67
2023/10/17 11:30:42;;;;;;;0.10;0.10;;;;;;;4.45;71.63;98431.94;5083105;28;20072;-68
2023/10/17 11:33:16;;;;;;;0.10;0.10;;;;;;;4.52;72.16;98434.34;5078144;28;20052;-67
2023/10/17 11:35:49;;;;;;;0.10;0.10;;;;;;;4.52;72.32;98428.94;5079648;28;20107;-68
2023/10/17 11:38:37;;;;;;;0.10;0.10;;;;;;;4.43;72.98;98433.28;5102031;28;20063;-67
2023/10/17 11:41:05;;;;;;;0.10;0.10;;;;;;;4.30;74.48;98448.13;5102285;28;20074;-68
2023/10/17 11:43:36;;;;;;;;;;;;;;;4.15;76.15;98435.38;5084253;28;20055;-68
2023/10/17 11:46:12;;;;;;;0.10;0.10;;;;;;;3.93;77.70;98439.09;5104998;28;20502;-69
2023/10/17 11:48:45;;;;;;;0.10;0.10;;;;;;;3.85;79.10;98453.94;5086586;28;20568;-68
2023/10/17 11:51:12;;;;;;;0.10;0.10;;;;;;;3.78;80.57;98434.41;5119262;28;20309;-68
2023/10/17 11:54:08;;;;;;;0.10;0.10;;;;;;;3.77;81.65;98436.31;5064287;28;20464;-70
2023/10/17 11:56:35;;;;;;;0.10;0.10;;;;;;;3.74;82.27;98449.53;5067836;28;20415;-70
2023/10/17 11:59:06;;;;;;;0.10;0.10;;;;;;;3.72;82.51;98438.19;5103461;28;20056;-70
2023/10/17 12:01:33;;;;;;;0.10;0.10;;;;;;;3.68;83.39;98430.59;5106736;28;20070;-68
2023/10/17 12:04:00;;;;;;;0.10;0.10;;;;;;;3.62;84.14;98439.72;5105260;28;20043;-68
2023/10/17 12:06:27;;;;;;;0.00;0.00;;;;;;;3.58;83.09;98419.72;5105631;28;20534;-68
2023/10/17 12:08:55;;;;;;;0.10;0.10;;;;;;;3.64;82.66;98431.38;5107183;28;20040;-68
2023/10/17 12:11:24;;;;;;;0.10;0.10;;;;;;;3.62;81.49;98442.44;5105344;28;20096;-68
2023/10/17 12:13:51;;;;;;;0.10;0.10;;;;;;;3.61;82.35;98426.50;5053367;28;20059;-68
2023/10/17 12:16:23;;;;;;;;;;;;;;;3.68;82.34;98427.06;5108517;28;20046;-68
2023/10/17 12:18:52;;;;;;;0.10;0.10;;;;;;;3.77;81.75;98422.78;5105643;28;20430;-68
2023/10/17 12:21:19;;;;;;;0.00;0.00;;;;;;;3.86;81.47;98443.91;5106270;28;20043;-68
2023/10/17 12:23:45;;;;;;;0.10;0.10;;;;;;;3.84;80.71;98441.47;5103569;28;20082;-68
2023/10/17 12:26:19;;;;;;;0.10;0.10;;;;;;;3.86;81.04;98441.19;5086471;28;20078;-68
2023/10/17 12:28:46;;;;;;;0.10;0.10;;;;;;;3.88;81.64;98437.16;5106041;28;20119;-68
2023/10/17 12:31:16;;;;;;;0.10;0.10;;;;;;;3.91;81.70;98435.84;5109183;28;20047;-68
2023/10/17 12:33:45;;;;;;;0.10;0.10;;;;;;;3.91;81.22;98443.94;5085881;28;20051;-68
2023/10/17 12:36:12;;;;;;;0.10;0.10;;;;;;;3.87;81.13;98434.72;5086646;28;20521;-68
2023/10/17 12:38:39;;;;;;;0.10;0.10;;;;;;;3.83;80.85;98445.25;5103935;28;20039;-68
2023/10/17 12:41:08;;;;;;;0.10;0.10;;;;;;;3.77;81.61;98443.59;5103735;28;20051;-68
2023/10/17 12:43:35;;;;;;;0.10;0.10;;;;;;;3.65;82.87;98425.69;5070097;28;20506;-68
2023/10/17 12:46:02;;;;;;;0.10;0.10;;;;;;;3.64;82.91;98448.41;5105644;28;20047;-70
2023/10/17 12:48:28;;;;;;;0.10;0.10;;;;;;;3.55;83.82;98449.97;5104554;28;20047;-70
2023/10/17 12:50:56;;;;;;;0.10;0.10;;;;;;;3.50;84.36;98450.75;5070060;28;20222;-70
2023/10/17 12:53:22;;;;;;;;;;;;;;;3.39;85.81;98435.56;5104624;28;20048;-70
2023/10/17 12:55:48;;;;;;;0.00;0.00;;;;;;;3.31;86.52;98446.88;5086726;28;19929;-70
2023/10/17 12:58:18;;;;;;;0.10;0.10;;;;;;;3.31;87.09;98447.66;5086445;28;20093;-70
2023/10/17 13:00:49;;;;;;;0.10;0.10;;;;;;;3.36;87.22;98455.00;5088342;28;20066;-70
2023/10/17 13:03:16;;;;;;;0.00;0.00;;;;;;;3.34;86.15;98446.34;5089573;28;20552;-71
2023/10/17 13:05:42;;;;;;;0.10;0.10;;;;;;;3.38;86.32;98442.03;5103459;28;20050;-70
2023/10/17 13:08:09;;;;;;;0.10;0.10;;;;;;;3.46;85.58;98455.06;5108655;28;20048;-70
2023/10/17 13:10:35;;;;;;;;;;;;;;;3.40;85.82;98431.78;5053058;28;20051;-70
2023/10/17 13:13:08;;;;;;;0.10;0.10;;;;;;;3.31;85.99;98463.06;5069574;28;19950;-68
2023/10/17 13:15:43;;;;;;;0.10;0.10;;;;;;;3.21;86.99;98456.50;5067850;28;20076;-70
2023/10/17 13:18:12;;;;;;;0.00;0.00;;;;;;;3.20;87.08;98454.88;5071069;28;20051;-70
2023/10/17 13:20:42;;;;;;;0.00;0.00;;;;;;;3.18;87.88;98467.00;5084745;28;20119;-67
2023/10/17 13:23:11;;;;;;;0.10;0.10;;;;;;;3.10;88.53;98452.94;5103251;28;20081;-70
2023/10/17 13:25:40;;;;;;;0.10;0.10;;;;;;;3.06;89.26;98446.41;5088590;28;20048;-67
2023/10/17 13:28:07;;;;;;;0.10;0.10;;;;;;;3.03;89.88;98476.63;5086957;28;20473;-70
2023/10/17 13:30:33;;;;;;;0.10;0.10;;;;;;;3.05;90.23;98470.97;5068547;28;20051;-68
2023/10/17 13:32:59;;;;;;;0.10;0.10;;;;;;;3.08;90.20;98459.66;5083018;28;20059;-71
2023/10/17 13:35:27;;;;;;;0.10;0.10;;;;;;;2.97;90.75;98461.47;5084855;28;20131;-67
2023/10/17 13:37:54;;;;;;;;;;;;;;;3.15;91.54;98468.38;5084077;28;20054;-68
2023/10/17 13:40:23;;;;;;;0.10;0.10;;;;;;;3.05;91.64;98468.28;5081152;28;19935;-70
2023/10/17 13:42:51;;;;;;;0.10;0.10;;;;;;;3.03;91.91;98476.63;5075713;28;20097;-70
2023/10/17 13:45:17;;;;;;;0.10;0.10;;;;;;;2.94;91.57;98478.97;5063121;28;20130;-70
2023/10/17 13:47:44;;;;;;;0.00;0.00;;;;;;;2.91;91.66;98489.50;5081529;28;20101;-70
2023/10/17 13:50:13;;;;;;;0.00;0.00;;;;;;;2.93;92.40;98485.44;5084952;28;20138;-70
2023/10/17 13:52:41;;;;;;;0.10;0.10;;;;;;;2.97;91.31;98478.50;5067953;28;20040;-71
2023/10/17 13:55:11;;;;;;;0.10;0.10;;;;;;;2.96;91.83;98495.72;5084927;28;20043;-70
2023/10/17 13:57:42;;;;;;;0.10;0.10;;;;;;;3.07;92.36;98487.72;5088295;28;20460;-70
2023/10/17 14:00:18;;;;;;;0.10;0.10;;;;;;;3.16;91.54;98504.28;5087327;28;20052;-70
2023/10/17 14:02:47;;;;;;;0.10;0.10;;;;;;;3.16;91.58;98486.19;5084436;28;20065;-70
2023/10/17 14:05:14;;;;;;;0.00;0.00;;;;;;;3.19;90.66;98487.56;5087203;28;20530;-70
2023/10/17 14:07:41;;;;;;;0.10;0.10;;;;;;;3.21;89.71;98491.63;5086287;28;20046;-68
2023/10/17 14:10:09;;;;;;;0.00;0.00;;;;;;;3.17;88.76;98484.28;5085370;28;20043;-68
2023/10/17 14:12:38;;;;;;;;;;;;;;;3.26;89.02;98501.66;5085673;28;20137;-68
2023/10/17 14:15:08;;;;;;;0.10;0.10;;;;;;;3.36;88.30;98506.34;5085866;28;19999;-68
2023/10/17 14:17:34;;;;;;;0.10;0.10;;;;;;;3.35;87.98;98496.59;5087203;28;20055;-68
2023/10/17 14:20:14;;;;;;;0.10;0.10;;;;;;;3.30;87.57;98494.66;5087494;28;20052;-68
2023/10/17 14:28:11;;;;;;;0.10;0.10;;;;;;;3.39;88.35;98513.91;5084672;28;20048;-67
2023/10/17 14:30:39;;;;;;;;;;;;;;;3.35;87.63;98502.00;5086432;28;20159;-67
2023/10/17 14:33:08;;;;;;;0.10;0.10;;;;;;;3.37;88.24;98516.06;5083983;28;20018;-67